createdAt,value
2022-08-17T00:00:43.878Z,24.36
2022-08-17T00:01:27.694Z,24.36
2022-08-17T00:02:27.248Z,24.36
2022-08-17T00:03:26.978Z,24.35
2022-08-17T00:04:27.084Z,24.33
2022-08-17T00:05:27.248Z,24.35
2022-08-17T00:06:27.527Z,24.33
2022-08-17T00:07:27.610Z,24.32
2022-08-17T00:08:27.756Z,24.32
2022-08-17T00:09:28.010Z,24.29
2022-08-17T00:10:28.105Z,24.29
2022-08-17T00:11:28.267Z,24.29
2022-08-17T00:12:41.997Z,24.28
2022-08-17T00:13:29.640Z,24.21
2022-08-17T00:14:28.777Z,24.20
2022-08-17T00:15:28.958Z,24.20
2022-08-17T00:16:56.497Z,24.20
2022-08-17T00:17:30.297Z,24.21
2022-08-17T00:19:02.169Z,24.20
2022-08-17T00:19:30.749Z,24.21
2022-08-17T00:20:33.427Z,24.20
2022-08-17T00:22:29.884Z,24.20
2022-08-17T00:22:36.087Z,24.21
2022-08-17T00:23:31.387Z,24.21
2022-08-17T00:24:30.648Z,24.20
2022-08-17T00:25:30.750Z,24.18
2022-08-17T00:26:44.160Z,24.20
2022-08-17T00:27:32.175Z,24.20
2022-08-17T00:28:31.258Z,24.18
2022-08-17T00:29:31.439Z,24.20
2022-08-17T00:30:31.640Z,24.20
2022-08-17T00:31:32.821Z,24.18
2022-08-17T00:33:12.041Z,24.17
2022-08-17T00:33:33.188Z,24.18
2022-08-17T00:34:32.319Z,24.16
2022-08-17T00:35:32.471Z,24.16
2022-08-17T00:36:32.669Z,24.16
2022-08-17T00:37:32.858Z,24.16
2022-08-17T00:38:32.969Z,24.14
2022-08-17T00:39:33.204Z,24.16
2022-08-17T00:40:40.647Z,24.14
2022-08-17T00:41:34.528Z,24.13
2022-08-17T00:42:33.758Z,24.13
2022-08-17T00:43:33.870Z,24.13
2022-08-17T00:44:34.030Z,24.11
2022-08-17T00:45:34.302Z,24.11
2022-08-17T00:46:34.421Z,24.06
2022-08-17T00:47:34.580Z,24.06
2022-08-17T00:48:34.833Z,24.08
2022-08-17T00:49:34.909Z,24.06
2022-08-17T00:50:35.063Z,24.05
2022-08-17T00:51:35.389Z,24.06
2022-08-17T00:52:35.435Z,24.03
2022-08-17T00:53:35.591Z,24.05
2022-08-17T00:54:41.917Z,24.05
2022-08-17T00:55:36.953Z,24.02
2022-08-17T00:56:36.090Z,24.02
2022-08-17T00:57:36.281Z,24.02
2022-08-17T00:58:36.860Z,24.02
2022-08-17T00:59:36.620Z,23.98
2022-08-17T01:00:36.777Z,23.96
2022-08-17T01:01:37.102Z,23.96
2022-08-17T01:02:42.559Z,23.95
2022-08-17T01:03:38.330Z,23.93
2022-08-17T01:04:37.603Z,23.95
2022-08-17T01:05:37.679Z,23.93
2022-08-17T01:06:37.842Z,23.92
2022-08-17T01:07:38.185Z,23.93
2022-08-17T01:08:38.156Z,23.92
2022-08-17T01:09:38.320Z,23.93
2022-08-17T01:10:58.417Z,23.93
2022-08-17T01:11:39.702Z,23.92
2022-08-17T01:12:38.835Z,23.91
2022-08-17T01:13:41.069Z,23.91
2022-08-17T01:14:39.203Z,23.91
2022-08-17T01:15:39.351Z,23.88
2022-08-17T01:16:39.533Z,23.87
2022-08-17T01:17:39.750Z,23.84
2022-08-17T01:18:39.862Z,23.84
2022-08-17T01:19:40.023Z,23.81
2022-08-17T01:20:43.049Z,23.81
2022-08-17T01:21:41.378Z,23.80
2022-08-17T01:22:40.515Z,23.78
2022-08-17T01:23:40.763Z,23.77
2022-08-17T01:24:40.830Z,23.76
2022-08-17T01:25:40.993Z,23.73
2022-08-17T01:26:41.275Z,23.71
2022-08-17T01:27:41.334Z,23.73
2022-08-17T01:28:54.651Z,23.69
2022-08-17T01:29:42.744Z,23.69
2022-08-17T01:30:57.142Z,23.68
2022-08-17T01:31:43.025Z,23.69
2022-08-17T01:32:42.241Z,23.69
2022-08-17T01:33:42.327Z,23.69
2022-08-17T01:34:46.784Z,23.66
2022-08-17T01:35:43.674Z,23.65
2022-08-17T01:36:42.953Z,23.63
2022-08-17T01:37:43.025Z,23.63
2022-08-17T01:38:43.188Z,23.65
2022-08-17T01:39:43.483Z,23.65
2022-08-17T01:40:43.515Z,23.66
2022-08-17T01:41:43.694Z,23.65
2022-08-17T01:42:43.937Z,23.65
2022-08-17T01:43:44.016Z,23.65
2022-08-17T01:44:44.175Z,23.63
2022-08-17T01:45:44.428Z,23.65
2022-08-17T01:46:44.520Z,23.62
2022-08-17T01:47:44.675Z,23.63
2022-08-17T01:48:44.845Z,23.63
2022-08-17T01:49:45.036Z,23.62
2022-08-17T01:50:45.186Z,23.63
2022-08-17T01:51:45.407Z,23.63
2022-08-17T01:52:45.583Z,23.62
2022-08-17T01:53:45.698Z,23.65
2022-08-17T01:54:45.856Z,23.63
2022-08-17T01:55:46.085Z,23.63
2022-08-17T01:56:47.199Z,23.63
2022-08-17T01:57:46.376Z,23.63
2022-08-17T01:58:46.619Z,23.63
2022-08-17T01:59:46.729Z,23.63
2022-08-17T02:01:00.987Z,23.65
2022-08-17T02:01:48.250Z,23.62
2022-08-17T02:02:47.239Z,23.63
2022-08-17T02:03:53.456Z,23.62
2022-08-17T02:04:48.653Z,23.63
2022-08-17T02:05:47.784Z,23.62
2022-08-17T02:06:53.090Z,23.62
2022-08-17T02:08:00.210Z,23.61
2022-08-17T02:09:01.787Z,23.61
2022-08-17T02:09:49.457Z,23.62
2022-08-17T02:10:48.626Z,23.62
2022-08-17T02:11:48.855Z,23.61
2022-08-17T02:12:49.066Z,23.59
2022-08-17T02:13:49.141Z,23.59
2022-08-17T02:14:50.404Z,23.59
2022-08-17T02:15:49.488Z,23.59
2022-08-17T02:16:49.671Z,23.56
2022-08-17T02:17:49.910Z,23.58
2022-08-17T02:18:51.010Z,23.56
2022-08-17T02:19:50.196Z,23.55
2022-08-17T02:20:50.358Z,23.54
2022-08-17T02:21:50.529Z,23.51
2022-08-17T02:22:50.867Z,23.50
2022-08-17T02:23:50.941Z,23.50
2022-08-17T02:24:59.780Z,23.50
2022-08-17T02:25:52.229Z,23.48
2022-08-17T02:26:51.539Z,23.51
2022-08-17T02:27:51.596Z,23.48
2022-08-17T02:28:51.749Z,23.46
2022-08-17T02:29:52.000Z,23.48
2022-08-17T02:31:01.021Z,23.46
2022-08-17T02:31:53.310Z,23.47
2022-08-17T02:32:52.470Z,23.46
2022-08-17T02:33:56.610Z,23.48
2022-08-17T02:34:53.820Z,23.46
2022-08-17T02:35:53.010Z,23.46
2022-08-17T02:36:53.283Z,23.47
2022-08-17T02:37:55.456Z,23.46
2022-08-17T02:38:53.540Z,23.47
2022-08-17T02:39:53.841Z,23.46
2022-08-17T02:40:53.881Z,23.47
2022-08-17T02:41:54.052Z,23.46
2022-08-17T02:42:54.304Z,23.44
2022-08-17T02:43:54.396Z,23.44
2022-08-17T02:44:54.542Z,23.44
2022-08-17T02:45:54.786Z,23.44
2022-08-17T02:46:54.952Z,23.43
2022-08-17T02:47:55.062Z,23.44
2022-08-17T02:48:55.252Z,23.39
2022-08-17T02:49:55.881Z,23.39
2022-08-17T02:50:55.657Z,23.39
2022-08-17T02:51:55.834Z,23.39
2022-08-17T02:53:02.605Z,23.36
2022-08-17T02:54:35.718Z,23.37
2022-08-17T02:54:57.359Z,23.37
2022-08-17T02:55:56.490Z,23.36
2022-08-17T02:56:56.662Z,23.34
2022-08-17T02:57:56.900Z,23.36
2022-08-17T02:58:57.003Z,23.34
2022-08-17T02:59:57.164Z,23.34
2022-08-17T03:00:57.416Z,23.34
2022-08-17T03:01:57.544Z,23.32
2022-08-17T03:02:57.662Z,23.32
2022-08-17T03:03:57.904Z,23.34
2022-08-17T03:04:58.015Z,23.28
2022-08-17T03:05:58.174Z,23.28
2022-08-17T03:06:58.455Z,23.27
2022-08-17T03:07:58.510Z,23.27
2022-08-17T03:08:58.663Z,23.25
2022-08-17T03:09:58.881Z,23.25
2022-08-17T03:10:59.048Z,23.24
2022-08-17T03:11:59.224Z,23.25
2022-08-17T03:12:59.379Z,23.23
2022-08-17T03:13:59.571Z,23.23
2022-08-17T03:14:59.685Z,23.23
2022-08-17T03:15:59.851Z,23.21
2022-08-17T03:17:00.116Z,23.20
2022-08-17T03:18:00.194Z,23.17
2022-08-17T03:19:00.356Z,23.17
2022-08-17T03:20:00.597Z,23.17
2022-08-17T03:21:00.684Z,23.15
2022-08-17T03:22:00.835Z,23.15
2022-08-17T03:23:03.111Z,23.15
2022-08-17T03:24:01.218Z,23.17
2022-08-17T03:25:02.396Z,23.18
2022-08-17T03:26:01.653Z,23.18
2022-08-17T03:27:01.766Z,23.17
2022-08-17T03:28:01.924Z,23.13
2022-08-17T03:29:02.126Z,23.12
2022-08-17T03:30:02.320Z,23.13
2022-08-17T03:31:02.443Z,23.15
2022-08-17T03:32:02.587Z,23.13
2022-08-17T03:33:02.838Z,23.13
2022-08-17T03:34:02.931Z,23.15
2022-08-17T03:35:03.108Z,23.15
2022-08-17T03:36:03.295Z,23.15
2022-08-17T03:37:03.476Z,23.18
2022-08-17T03:38:03.656Z,23.18
2022-08-17T03:39:03.835Z,23.20
2022-08-17T03:40:04.154Z,23.18
2022-08-17T03:41:04.216Z,23.17
2022-08-17T03:42:04.357Z,23.18
2022-08-17T03:43:04.632Z,23.20
2022-08-17T03:44:04.717Z,23.18
2022-08-17T03:45:04.907Z,23.18
2022-08-17T03:46:05.190Z,23.20
2022-08-17T03:47:05.261Z,23.20
2022-08-17T03:48:05.425Z,23.18
2022-08-17T03:49:05.595Z,23.18
2022-08-17T03:50:10.342Z,23.18
2022-08-17T03:51:05.916Z,23.17
2022-08-17T03:52:06.075Z,23.17
2022-08-17T03:53:06.270Z,23.15
2022-08-17T03:54:06.400Z,23.17
2022-08-17T03:55:06.589Z,23.13
2022-08-17T03:56:06.788Z,23.17
2022-08-17T03:57:06.918Z,23.17
2022-08-17T03:58:07.099Z,23.17
2022-08-17T03:59:07.352Z,23.17
2022-08-17T04:00:08.449Z,23.15
2022-08-17T04:01:07.686Z,23.18
2022-08-17T04:02:07.878Z,23.17
2022-08-17T04:03:07.987Z,23.20
2022-08-17T04:04:08.149Z,23.21
2022-08-17T04:05:08.388Z,23.20
2022-08-17T04:06:08.518Z,23.21
2022-08-17T04:07:08.648Z,23.21
2022-08-17T04:08:08.868Z,23.24
2022-08-17T04:09:09.075Z,23.25
2022-08-17T04:10:09.178Z,23.25
2022-08-17T04:11:09.380Z,23.27
2022-08-17T04:12:09.601Z,23.28
2022-08-17T04:13:09.689Z,23.28
2022-08-17T04:14:09.878Z,23.28
2022-08-17T04:15:10.141Z,23.28
2022-08-17T04:16:10.222Z,23.27
2022-08-17T04:17:10.401Z,23.27
2022-08-17T04:18:10.892Z,23.27
2022-08-17T04:19:10.760Z,23.31
2022-08-17T04:20:10.918Z,23.31
2022-08-17T04:21:11.201Z,23.34
2022-08-17T04:22:11.279Z,23.34
2022-08-17T04:23:12.450Z,23.37
2022-08-17T04:24:11.675Z,23.40
2022-08-17T04:25:11.823Z,23.40
2022-08-17T04:26:12.010Z,23.46
2022-08-17T04:27:13.145Z,23.46
2022-08-17T04:28:16.038Z,23.48
2022-08-17T04:29:12.474Z,23.48
2022-08-17T04:30:12.666Z,23.51
2022-08-17T04:31:12.943Z,23.55
2022-08-17T04:32:13.002Z,23.58
2022-08-17T04:33:13.424Z,23.59
2022-08-17T04:34:13.431Z,23.61
2022-08-17T04:35:13.542Z,23.65
2022-08-17T04:36:13.692Z,23.69
2022-08-17T04:37:13.963Z,23.71
2022-08-17T04:38:14.065Z,23.76
2022-08-17T04:39:14.243Z,23.78
2022-08-17T04:40:14.523Z,23.81
2022-08-17T04:41:14.663Z,23.86
2022-08-17T04:42:14.782Z,23.87
2022-08-17T04:43:14.988Z,23.92
2022-08-17T04:44:15.179Z,23.98
2022-08-17T04:45:16.292Z,24.02
2022-08-17T04:46:15.493Z,24.11
2022-08-17T04:47:15.721Z,24.17
2022-08-17T04:48:15.810Z,24.23
2022-08-17T04:49:15.991Z,24.28
2022-08-17T04:50:16.256Z,24.32
2022-08-17T04:51:16.368Z,24.33
2022-08-17T04:52:32.226Z,24.38
2022-08-17T04:53:17.795Z,24.39
2022-08-17T04:54:16.909Z,24.42
2022-08-17T04:55:17.055Z,24.45
2022-08-17T04:56:19.041Z,24.51
2022-08-17T04:57:17.421Z,24.58
2022-08-17T04:58:17.667Z,24.68
2022-08-17T04:59:17.801Z,24.76
2022-08-17T05:00:17.961Z,24.80
2022-08-17T05:01:23.449Z,24.85
2022-08-17T05:02:19.340Z,24.88
2022-08-17T05:03:18.453Z,24.91
2022-08-17T05:04:33.220Z,24.92
2022-08-17T05:05:19.938Z,24.95
2022-08-17T05:06:18.974Z,24.98
2022-08-17T05:07:23.465Z,25.03
2022-08-17T05:08:20.406Z,25.04
2022-08-17T05:09:19.505Z,25.06
2022-08-17T05:10:19.686Z,25.08
2022-08-17T05:11:20.016Z,25.13
2022-08-17T05:12:20.026Z,25.14
2022-08-17T05:13:20.213Z,25.16
2022-08-17T05:14:20.467Z,25.21
2022-08-17T05:15:20.582Z,25.25
2022-08-17T05:16:20.770Z,25.28
2022-08-17T05:17:20.978Z,25.31
2022-08-17T05:18:21.114Z,25.35
2022-08-17T05:19:21.257Z,25.40
2022-08-17T05:20:21.484Z,25.43
2022-08-17T05:21:21.672Z,25.48
2022-08-17T05:22:21.787Z,25.51
2022-08-17T05:23:22.021Z,25.58
2022-08-17T05:24:39.043Z,25.63
2022-08-17T05:25:25.513Z,25.73
2022-08-17T05:26:26.143Z,25.91
2022-08-17T05:27:22.657Z,26.19
2022-08-17T05:28:26.565Z,26.55
2022-08-17T05:29:23.090Z,26.89
2022-08-17T05:30:24.205Z,27.26
2022-08-17T05:31:23.338Z,27.63
2022-08-17T05:32:37.822Z,27.95
2022-08-17T05:33:24.673Z,28.19
2022-08-17T05:34:23.840Z,28.42
2022-08-17T05:35:24.125Z,28.60
2022-08-17T05:36:42.154Z,28.82
2022-08-17T05:37:25.368Z,29.01
2022-08-17T05:38:24.581Z,29.20
2022-08-17T05:39:24.819Z,29.36
2022-08-17T05:40:24.888Z,29.54
2022-08-17T05:41:25.052Z,29.72
2022-08-17T05:42:25.274Z,29.87
2022-08-17T05:43:25.381Z,30.03
2022-08-17T05:44:25.539Z,30.19
2022-08-17T05:45:54.504Z,30.30
2022-08-17T05:46:26.903Z,30.37
2022-08-17T05:47:26.081Z,30.50
2022-08-17T05:48:35.506Z,30.63
2022-08-17T05:49:27.443Z,30.78
2022-08-17T05:50:27.103Z,30.91
2022-08-17T05:51:26.883Z,31.06
2022-08-17T05:52:26.965Z,31.18
2022-08-17T05:53:27.142Z,31.24
2022-08-17T05:54:27.296Z,31.21
2022-08-17T05:55:27.526Z,31.10
2022-08-17T05:56:29.981Z,30.97
2022-08-17T05:57:27.832Z,30.84
2022-08-17T05:58:28.006Z,30.69
2022-08-17T05:59:28.153Z,30.57
2022-08-17T06:00:30.597Z,30.46
2022-08-17T06:01:28.660Z,30.35
2022-08-17T06:02:28.674Z,30.25
2022-08-17T06:03:28.865Z,30.16
2022-08-17T06:04:29.105Z,30.09
2022-08-17T06:05:29.222Z,30.08
2022-08-17T06:06:31.575Z,30.03
2022-08-17T06:07:29.618Z,29.98
2022-08-17T06:08:29.716Z,29.95
2022-08-17T06:09:33.637Z,29.88
2022-08-17T06:10:30.190Z,29.86
2022-08-17T06:11:31.234Z,29.78
2022-08-17T06:12:31.371Z,29.76
2022-08-17T06:13:30.639Z,29.73
2022-08-17T06:14:30.827Z,29.72
2022-08-17T06:15:30.984Z,29.68
2022-08-17T06:16:34.435Z,29.66
2022-08-17T06:17:31.373Z,29.63
2022-08-17T06:18:31.467Z,29.61
2022-08-17T06:19:31.647Z,29.61
2022-08-17T06:20:31.939Z,29.66
2022-08-17T06:21:32.277Z,29.69
2022-08-17T06:22:32.177Z,29.73
2022-08-17T06:23:32.445Z,29.81
2022-08-17T06:24:32.519Z,29.88
2022-08-17T06:25:32.698Z,29.98
2022-08-17T06:26:38.304Z,30.09
2022-08-17T06:27:34.044Z,30.19
2022-08-17T06:28:33.208Z,30.31
2022-08-17T06:29:33.426Z,30.44
2022-08-17T06:30:59.174Z,30.61
2022-08-17T06:31:34.729Z,30.73
2022-08-17T06:32:33.946Z,30.88
2022-08-17T06:33:34.424Z,31.02
2022-08-17T06:34:34.600Z,31.10
2022-08-17T06:35:34.409Z,31.17
2022-08-17T06:36:34.661Z,31.21
2022-08-17T06:37:34.770Z,31.29
2022-08-17T06:38:37.046Z,31.39
2022-08-17T06:39:35.230Z,31.46
2022-08-17T06:40:35.332Z,31.56
2022-08-17T06:41:37.900Z,31.69
2022-08-17T06:42:54.758Z,31.80
2022-08-17T06:43:36.844Z,31.93
2022-08-17T06:44:50.194Z,32.00
2022-08-17T06:45:37.279Z,32.08
2022-08-17T06:46:36.400Z,32.09
2022-08-17T06:47:36.524Z,32.12
2022-08-17T06:48:36.756Z,32.18
2022-08-17T06:49:36.967Z,32.27
2022-08-17T06:50:37.044Z,32.40
2022-08-17T06:51:37.233Z,32.64
2022-08-17T06:52:46.185Z,32.90
2022-08-17T06:53:38.593Z,33.19
2022-08-17T06:54:37.799Z,33.42
2022-08-17T06:55:38.434Z,33.64
2022-08-17T06:56:53.807Z,33.81
2022-08-17T06:57:39.332Z,33.98
2022-08-17T06:58:40.102Z,34.20
2022-08-17T06:59:54.681Z,34.43
2022-08-17T07:00:39.875Z,34.61
2022-08-17T07:01:39.128Z,34.75
2022-08-17T07:02:52.658Z,34.86
2022-08-17T07:03:40.346Z,34.92
2022-08-17T07:04:39.630Z,34.95
2022-08-17T07:05:39.727Z,34.89
2022-08-17T07:06:39.899Z,34.92
2022-08-17T07:07:40.069Z,35.07
2022-08-17T07:08:40.291Z,35.37
2022-08-17T07:09:40.427Z,35.68
2022-08-17T07:10:40.595Z,35.98
2022-08-17T07:11:40.818Z,36.20
2022-08-17T07:12:40.908Z,36.25
2022-08-17T07:13:41.085Z,36.33
2022-08-17T07:14:41.327Z,36.35
2022-08-17T07:15:41.437Z,36.35
2022-08-17T07:16:41.629Z,36.40
2022-08-17T07:17:47.983Z,36.54
2022-08-17T07:18:43.013Z,36.80
2022-08-17T07:19:42.169Z,37.06
2022-08-17T07:20:42.418Z,37.35
2022-08-17T07:21:42.553Z,37.56
2022-08-17T07:22:57.493Z,37.86
2022-08-17T07:23:43.870Z,38.19
2022-08-17T07:24:43.111Z,38.52
2022-08-17T07:25:43.201Z,38.83
2022-08-17T07:26:43.425Z,39.17
2022-08-17T07:27:43.606Z,39.48
2022-08-17T07:28:43.721Z,39.75
2022-08-17T07:29:44.005Z,40.08
2022-08-17T07:30:45.652Z,40.35
2022-08-17T07:31:44.252Z,40.63
2022-08-17T07:32:44.511Z,40.85
2022-08-17T07:33:44.622Z,41.00
2022-08-17T07:34:44.813Z,41.22
2022-08-17T07:35:45.076Z,41.41
2022-08-17T07:36:45.182Z,41.57
2022-08-17T07:37:45.353Z,41.68
2022-08-17T07:38:45.623Z,41.87
2022-08-17T07:40:14.727Z,42.07
2022-08-17T07:40:46.918Z,42.26
2022-08-17T07:41:53.232Z,42.41
2022-08-17T07:42:47.245Z,42.51
2022-08-17T07:43:46.456Z,42.66
2022-08-17T07:44:46.596Z,42.84
2022-08-17T07:45:46.739Z,42.94
2022-08-17T07:46:46.926Z,43.00
2022-08-17T07:47:47.107Z,43.06
2022-08-17T07:48:47.287Z,42.99
2022-08-17T07:49:47.516Z,42.95
2022-08-17T07:50:50.545Z,42.94
2022-08-17T07:51:47.830Z,42.94
2022-08-17T07:52:51.670Z,43.01
2022-08-17T07:53:48.202Z,43.13
2022-08-17T07:54:48.371Z,43.27
2022-08-17T07:55:48.518Z,43.43
2022-08-17T07:56:48.716Z,43.61
2022-08-17T07:57:48.945Z,43.76
2022-08-17T07:58:49.039Z,43.86
2022-08-17T07:59:49.249Z,43.92
2022-08-17T08:00:49.464Z,44.01
2022-08-17T08:01:49.611Z,44.08
2022-08-17T08:02:50.730Z,44.17
2022-08-17T08:03:52.788Z,44.29
2022-08-17T08:05:00.476Z,44.51
2022-08-17T08:05:51.270Z,44.64
2022-08-17T08:06:50.492Z,44.79
2022-08-17T08:07:50.767Z,44.96
2022-08-17T08:08:50.821Z,45.09
2022-08-17T08:09:51.019Z,45.22
2022-08-17T08:10:51.176Z,45.43
2022-08-17T08:11:51.311Z,45.65
2022-08-17T08:12:53.949Z,45.88
2022-08-17T08:13:51.733Z,46.03
2022-08-17T08:14:51.863Z,46.10
2022-08-17T08:15:53.755Z,46.22
2022-08-17T08:16:52.224Z,46.27
2022-08-17T08:17:52.747Z,46.34
2022-08-17T08:18:55.392Z,46.38
2022-08-17T08:19:52.831Z,46.42
2022-08-17T08:20:54.005Z,46.45
2022-08-17T08:21:53.116Z,46.54
2022-08-17T08:22:53.365Z,46.69
2022-08-17T08:23:53.474Z,46.86
2022-08-17T08:24:53.665Z,46.99
2022-08-17T08:25:53.892Z,47.11
2022-08-17T08:26:53.996Z,47.13
2022-08-17T08:27:54.168Z,47.18
2022-08-17T08:28:54.479Z,47.25
2022-08-17T08:29:54.530Z,47.27
2022-08-17T08:30:54.706Z,47.11
2022-08-17T08:31:54.877Z,46.98
2022-08-17T08:32:55.331Z,46.96
2022-08-17T08:33:55.257Z,46.99
2022-08-17T08:35:01.792Z,47.01
2022-08-17T08:35:56.618Z,46.94
2022-08-17T08:37:16.028Z,46.88
2022-08-17T08:37:57.070Z,46.88
2022-08-17T08:38:56.199Z,46.74
2022-08-17T08:39:56.400Z,46.61
2022-08-17T08:40:56.600Z,46.41
2022-08-17T08:41:56.680Z,46.38
2022-08-17T08:42:56.865Z,46.53
2022-08-17T08:43:57.136Z,46.57
2022-08-17T08:45:00.064Z,46.67
2022-08-17T08:45:58.425Z,46.77
2022-08-17T08:46:57.638Z,46.79
2022-08-17T08:47:57.815Z,46.79
2022-08-17T08:49:00.843Z,46.72
2022-08-17T08:50:05.971Z,46.61
2022-08-17T08:50:59.327Z,46.62
2022-08-17T08:51:58.450Z,46.57
2022-08-17T08:52:58.646Z,46.54
2022-08-17T08:53:58.877Z,46.50
2022-08-17T08:54:58.963Z,46.50
2022-08-17T08:55:59.148Z,46.41
2022-08-17T08:57:23.095Z,46.48
2022-08-17T08:58:00.483Z,46.45
2022-08-17T08:58:59.684Z,46.48
2022-08-17T08:59:59.954Z,46.45
2022-08-17T09:01:00.107Z,46.45
2022-08-17T09:02:00.227Z,46.42
2022-08-17T09:03:00.502Z,46.41
2022-08-17T09:04:19.500Z,46.48
2022-08-17T09:05:16.761Z,46.43
2022-08-17T09:06:01.976Z,46.35
2022-08-17T09:07:01.143Z,46.39
2022-08-17T09:08:01.316Z,46.62
2022-08-17T09:09:01.595Z,46.89
2022-08-17T09:10:01.718Z,47.18
2022-08-17T09:11:01.848Z,47.36
2022-08-17T09:12:03.827Z,47.53
2022-08-17T09:13:09.534Z,47.75
2022-08-17T09:14:03.387Z,47.95
2022-08-17T09:15:02.567Z,48.12
2022-08-17T09:16:02.823Z,48.15
2022-08-17T09:17:02.929Z,48.29
2022-08-17T09:18:59.243Z,48.50
2022-08-17T09:19:05.068Z,48.65
2022-08-17T09:20:03.478Z,48.59
2022-08-17T09:21:03.744Z,48.55
2022-08-17T09:22:03.819Z,48.53
2022-08-17T09:23:04.038Z,48.06
2022-08-17T09:24:04.213Z,47.84
2022-08-17T09:25:04.351Z,47.68
2022-08-17T09:26:04.520Z,47.41
2022-08-17T09:27:04.788Z,47.34
2022-08-17T09:28:04.906Z,47.30
2022-08-17T09:29:05.051Z,47.44
2022-08-17T09:30:05.283Z,47.54
2022-08-17T09:31:05.449Z,47.53
2022-08-17T09:32:05.580Z,47.58
2022-08-17T09:33:05.792Z,47.37
2022-08-17T09:34:05.941Z,46.94
2022-08-17T09:35:06.112Z,46.47
2022-08-17T09:36:06.292Z,46.13
2022-08-17T09:37:06.503Z,45.66
2022-08-17T09:38:06.646Z,45.35
2022-08-17T09:39:06.823Z,44.86
2022-08-17T09:40:07.097Z,44.10
2022-08-17T09:41:07.191Z,43.77
2022-08-17T09:42:07.384Z,43.79
2022-08-17T09:43:07.630Z,43.79
2022-08-17T09:44:22.746Z,43.87
2022-08-17T09:45:08.886Z,44.14
2022-08-17T09:46:08.092Z,44.47
2022-08-17T09:47:08.290Z,44.67
2022-08-17T09:48:08.466Z,44.54
2022-08-17T09:49:08.647Z,44.22
2022-08-17T09:50:08.893Z,44.13
2022-08-17T09:51:08.997Z,44.29
2022-08-17T09:52:09.167Z,44.45
2022-08-17T09:53:09.454Z,44.48
2022-08-17T09:54:37.488Z,44.67
2022-08-17T09:55:10.718Z,44.87
2022-08-17T09:56:09.963Z,45.08
2022-08-17T09:57:29.258Z,45.18
2022-08-17T09:58:11.300Z,45.13
2022-08-17T09:59:10.542Z,45.18
2022-08-17T10:00:10.643Z,45.32
2022-08-17T10:01:10.858Z,45.55
2022-08-17T10:02:13.273Z,45.70
2022-08-17T10:03:11.218Z,45.63
2022-08-17T10:04:11.371Z,45.47
2022-08-17T10:05:11.544Z,45.46
2022-08-17T10:06:11.721Z,45.61
2022-08-17T10:07:11.923Z,45.68
2022-08-17T10:08:12.064Z,45.63
2022-08-17T10:09:12.330Z,45.56
2022-08-17T10:10:14.305Z,45.29
2022-08-17T10:11:12.600Z,44.83
2022-08-17T10:12:12.833Z,44.29
2022-08-17T10:13:13.001Z,43.76
2022-08-17T10:14:36.972Z,43.33
2022-08-17T10:15:14.660Z,42.88
2022-08-17T10:16:13.525Z,42.35
2022-08-17T10:17:13.670Z,42.04
2022-08-17T10:18:13.844Z,41.75
2022-08-17T10:19:14.102Z,41.47
2022-08-17T10:20:14.194Z,41.31
2022-08-17T10:21:14.385Z,41.12
2022-08-17T10:22:34.974Z,41.02
2022-08-17T10:23:15.743Z,40.84
2022-08-17T10:24:14.915Z,40.61
2022-08-17T10:25:23.894Z,40.33
2022-08-17T10:26:16.268Z,40.15
2022-08-17T10:27:15.476Z,39.99
2022-08-17T10:28:20.172Z,39.81
2022-08-17T10:29:15.786Z,39.68
2022-08-17T10:30:15.948Z,39.56
2022-08-17T10:31:34.367Z,39.48
2022-08-17T10:32:17.315Z,39.38
2022-08-17T10:33:16.444Z,39.22
2022-08-17T10:34:16.696Z,39.04
2022-08-17T10:35:16.834Z,38.91
2022-08-17T10:36:16.975Z,38.67
2022-08-17T10:37:17.223Z,38.54
2022-08-17T10:38:17.359Z,38.48
2022-08-17T10:39:17.498Z,38.46
2022-08-17T10:40:17.723Z,38.49
2022-08-17T10:41:17.898Z,38.46
2022-08-17T10:42:32.172Z,38.46
2022-08-17T10:43:19.219Z,38.42
2022-08-17T10:44:38.414Z,38.34
2022-08-17T10:45:19.558Z,38.34
2022-08-17T10:46:31.388Z,38.24
2022-08-17T10:47:20.003Z,38.11
2022-08-17T10:48:19.088Z,37.97
2022-08-17T10:49:19.266Z,37.89
2022-08-17T10:50:19.486Z,37.78
2022-08-17T10:51:19.593Z,37.75
2022-08-17T10:52:19.789Z,37.70
2022-08-17T10:53:20.087Z,37.67
2022-08-17T10:54:20.118Z,37.64
2022-08-17T10:55:20.262Z,37.65
2022-08-17T10:56:20.492Z,37.68
2022-08-17T10:57:20.669Z,37.71
2022-08-17T10:58:20.783Z,37.71
2022-08-17T10:59:20.980Z,37.68
2022-08-17T11:00:24.273Z,37.63
2022-08-17T11:01:22.355Z,37.56
2022-08-17T11:02:21.511Z,37.47
2022-08-17T11:03:21.723Z,37.33
2022-08-17T11:04:21.834Z,37.25
2022-08-17T11:05:21.974Z,37.15
2022-08-17T11:06:22.238Z,37.08
2022-08-17T11:07:22.363Z,37.03
2022-08-17T11:08:22.505Z,36.99
2022-08-17T11:09:22.689Z,37.01
2022-08-17T11:10:22.884Z,36.99
2022-08-17T11:11:23.037Z,36.98
2022-08-17T11:12:23.322Z,36.96
2022-08-17T11:13:23.409Z,36.96
2022-08-17T11:14:23.593Z,36.95
2022-08-17T11:15:23.801Z,36.99
2022-08-17T11:16:23.978Z,37.01
2022-08-17T11:17:24.136Z,36.93
2022-08-17T11:18:24.315Z,36.92
2022-08-17T11:19:24.500Z,36.91
2022-08-17T11:20:24.627Z,36.81
2022-08-17T11:21:24.787Z,36.80
2022-08-17T11:22:27.793Z,36.86
2022-08-17T11:23:26.128Z,36.88
2022-08-17T11:24:25.309Z,36.93
2022-08-17T11:25:25.551Z,36.93
2022-08-17T11:26:25.658Z,36.96
2022-08-17T11:27:25.829Z,36.84
2022-08-17T11:28:26.070Z,36.79
2022-08-17T11:29:26.152Z,36.74
2022-08-17T11:30:26.644Z,36.72
2022-08-17T11:31:37.988Z,36.68
2022-08-17T11:32:27.706Z,36.68
2022-08-17T11:33:26.840Z,36.64
2022-08-17T11:34:27.070Z,36.61
2022-08-17T11:35:27.212Z,36.58
2022-08-17T11:36:27.377Z,36.51
2022-08-17T11:37:27.583Z,36.51
2022-08-17T11:38:28.550Z,36.51
2022-08-17T11:39:27.932Z,36.47
2022-08-17T11:40:28.062Z,36.46
2022-08-17T11:41:28.242Z,36.45
2022-08-17T11:42:28.452Z,36.45
2022-08-17T11:43:28.591Z,36.45
2022-08-17T11:44:28.852Z,36.43
2022-08-17T11:45:32.242Z,36.42
2022-08-17T11:46:29.134Z,36.43
2022-08-17T11:47:29.404Z,36.40
2022-08-17T11:48:29.964Z,36.43
2022-08-17T11:49:29.687Z,36.43
2022-08-17T11:50:29.897Z,36.47
2022-08-17T11:51:30.085Z,36.51
2022-08-17T11:52:30.225Z,36.52
2022-08-17T11:53:30.376Z,36.54
2022-08-17T11:54:33.612Z,36.54
2022-08-17T11:55:43.013Z,36.51
2022-08-17T11:56:31.936Z,36.52
2022-08-17T11:57:31.209Z,36.55
2022-08-17T11:58:31.265Z,36.54
2022-08-17T11:59:31.440Z,36.59
2022-08-17T12:00:31.669Z,36.65
2022-08-17T12:01:31.789Z,36.68
2022-08-17T12:02:32.231Z,36.72
2022-08-17T12:03:32.300Z,36.72
2022-08-17T12:04:32.413Z,36.74
2022-08-17T12:05:32.485Z,36.76
2022-08-17T12:06:32.718Z,36.77
2022-08-17T12:07:32.898Z,36.79
2022-08-17T12:08:33.033Z,36.81
2022-08-17T12:09:33.207Z,36.89
2022-08-17T12:10:33.448Z,36.93
2022-08-17T12:11:55.488Z,36.99
2022-08-17T12:12:34.749Z,37.03
2022-08-17T12:13:39.463Z,37.10
2022-08-17T12:15:08.093Z,37.10
2022-08-17T12:15:35.280Z,37.10
2022-08-17T12:16:34.531Z,37.08
2022-08-17T12:17:40.716Z,37.14
2022-08-17T12:18:35.836Z,37.18
2022-08-17T12:19:35.067Z,37.23
2022-08-17T12:20:35.190Z,37.28
2022-08-17T12:21:35.342Z,37.33
2022-08-17T12:22:35.589Z,37.37
2022-08-17T12:23:35.706Z,37.40
2022-08-17T12:24:35.871Z,37.42
2022-08-17T12:25:36.089Z,37.48
2022-08-17T12:26:36.235Z,37.53
2022-08-17T12:27:47.665Z,37.56
2022-08-17T12:28:37.573Z,37.60
2022-08-17T12:29:38.645Z,37.64
2022-08-17T12:30:36.890Z,37.65
2022-08-17T12:31:37.061Z,37.70
2022-08-17T12:32:37.310Z,37.75
2022-08-17T12:33:37.384Z,37.80
2022-08-17T12:34:37.558Z,37.84
2022-08-17T12:35:37.781Z,37.89
2022-08-17T12:36:37.894Z,37.89
2022-08-17T12:37:38.072Z,37.87
2022-08-17T12:38:38.303Z,37.83
2022-08-17T12:39:38.417Z,37.80
2022-08-17T12:40:38.574Z,37.78
2022-08-17T12:41:38.807Z,37.78
2022-08-17T12:42:38.937Z,37.72
2022-08-17T12:43:39.105Z,37.75
2022-08-17T12:44:46.154Z,37.75
2022-08-17T12:45:40.487Z,37.70
2022-08-17T12:46:39.634Z,37.64
2022-08-17T12:47:39.857Z,37.58
2022-08-17T12:48:39.991Z,37.48
2022-08-17T12:49:41.138Z,37.39
2022-08-17T12:50:40.338Z,37.36
2022-08-17T12:51:40.535Z,37.25
2022-08-17T12:52:40.678Z,37.13
2022-08-17T12:53:40.831Z,37.10
2022-08-17T12:54:41.099Z,37.13